Terminal Aerodrome Forecast
Issued by NWS

Home | Current Version | Previous Version | Text Only | Print | Product List | Glossary Off
Versions: 1 2 3 4 5 6 7 8 9 10 11 12 13 14

241
FTUS43 KMPX 032341
TAFRWF
TAF
KRWF 032341Z 0400/0424 29009KT P6SM SKC
     FM040100 26007KT P6SM BKN070
     FM040600 22007KT P6SM OVC040
     FM041200 24008KT 4SM -SN BR OVC020
      TEMPO 0413/0416 1 1/2SM -SN BR OVC010
     FM041700 31010KT P6SM OVC020
     FM042200 29006KT P6SM SCT020=

USA.gov is the U.S. government's official web portal to all federal, state and local government web resources and services.